TimeEDT,TemperatureF,Dew PointF,Humidity,Sea Level PressureIn,VisibilityMPH,Wind Direction,Wind SpeedMPH,Gust SpeedMPH,PrecipitationIn,Events,Conditions,WindDirDegrees,DateUTC
12:54 AM,71.1,70.0,96,29.96,10.0,WSW,3.5,-,N/A,,Clear,240,2013-07-22 04:54:00
1:54 AM,71.1,70.0,96,29.95,10.0,SSW,3.5,-,N/A,,Clear,210,2013-07-22 05:54:00
2:14 AM,69.8,69.8,100,29.97,6.0,South,3.5,-,N/A,,Scattered Clouds,190,2013-07-22 06:14:00
2:24 AM,69.8,69.8,100,29.97,6.0,Calm,Calm,-,N/A,,Mostly Cloudy,0,2013-07-22 06:24:00
2:42 AM,71.6,69.8,94,29.96,6.0,Calm,Calm,-,N/A,,Overcast,0,2013-07-22 06:42:00
2:47 AM,69.8,69.8,100,29.96,2.5,Calm,Calm,-,N/A,,Overcast,0,2013-07-22 06:47:00
2:54 AM,70.0,69.1,97,29.93,4.0,Calm,Calm,-,N/A,,Mostly Cloudy,0,2013-07-22 06:54:00
3:14 AM,71.6,69.8,94,29.95,10.0,South,3.5,-,N/A,,Mostly Cloudy,180,2013-07-22 07:14:00
3:31 AM,71.6,69.8,94,29.95,2.0,Variable,3.5,-,N/A,,Overcast,0,2013-07-22 07:31:00
3:41 AM,71.6,69.8,94,29.95,8.0,Calm,Calm,-,N/A,,Overcast,0,2013-07-22 07:41:00
3:54 AM,71.1,70.0,96,29.92,9.0,Calm,Calm,-,N/A,,Overcast,0,2013-07-22 07:54:00
4:08 AM,71.6,69.8,94,29.95,8.0,Calm,Calm,-,N/A,,Mostly Cloudy,0,2013-07-22 08:08:00
4:17 AM,71.6,69.8,94,29.94,8.0,Calm,Calm,-,N/A,,Overcast,0,2013-07-22 08:17:00
4:54 AM,71.1,69.1,93,29.91,10.0,Calm,Calm,-,N/A,,Mostly Cloudy,0,2013-07-22 08:54:00
5:01 AM,69.8,69.8,100,29.94,7.0,Calm,Calm,-,N/A,,Scattered Clouds,0,2013-07-22 09:01:00
5:42 AM,69.8,69.8,100,29.94,7.0,Calm,Calm,-,N/A,,Scattered Clouds,0,2013-07-22 09:42:00
5:54 AM,70.0,69.1,97,29.92,6.0,Calm,Calm,-,N/A,,Partly Cloudy,0,2013-07-22 09:54:00
6:54 AM,70.0,69.1,97,29.94,6.0,Calm,Calm,-,N/A,,Clear,0,2013-07-22 10:54:00
7:20 AM,71.6,69.8,94,29.96,8.0,Calm,Calm,-,N/A,,Partly Cloudy,0,2013-07-22 11:20:00
7:54 AM,72.0,70.0,93,29.95,9.0,SSW,3.5,-,N/A,,Mostly Cloudy,200,2013-07-22 11:54:00
8:39 AM,71.6,71.6,100,29.99,5.0,South,4.6,-,N/A,,Overcast,180,2013-07-22 12:39:00
8:54 AM,72.0,71.1,97,29.96,3.0,South,4.6,-,N/A,,Overcast,180,2013-07-22 12:54:00
9:03 AM,71.6,71.6,100,29.99,2.0,South,4.6,-,N/A,,Overcast,170,2013-07-22 13:03:00
9:10 AM,71.6,71.6,100,29.98,1.0,South,3.5,-,N/A,,Overcast,170,2013-07-22 13:10:00
9:34 AM,73.4,71.6,94,29.98,5.0,Calm,Calm,-,N/A,,Overcast,0,2013-07-22 13:34:00
9:54 AM,73.9,71.1,91,29.95,9.0,Calm,Calm,-,N/A,,Overcast,0,2013-07-22 13:54:00
10:14 AM,73.4,71.6,94,29.98,10.0,Calm,Calm,-,N/A,,Overcast,0,2013-07-22 14:14:00
10:54 AM,75.9,71.1,85,29.95,10.0,Variable,3.5,-,N/A,,Overcast,0,2013-07-22 14:54:00
11:54 AM,75.9,72.0,87,29.94,10.0,Calm,Calm,-,N/A,,Overcast,0,2013-07-22 15:54:00
12:15 PM,77.0,71.6,83,29.97,10.0,South,6.9,-,0.00,Rain,Light Rain,180,2013-07-22 16:15:00
12:54 PM,81.0,73.0,77,29.93,10.0,Variable,5.8,-,0.00,,Mostly Cloudy,0,2013-07-22 16:54:00
1:04 PM,80.6,71.6,74,29.95,10.0,South,5.8,-,N/A,,Mostly Cloudy,190,2013-07-22 17:04:00
1:54 PM,84.0,73.0,69,29.90,10.0,SSW,8.1,-,N/A,,Mostly Cloudy,200,2013-07-22 17:54:00
2:54 PM,86.0,71.1,61,29.87,10.0,SW,6.9,-,N/A,,Scattered Clouds,220,2013-07-22 18:54:00
3:54 PM,87.1,71.1,59,29.85,10.0,SSW,6.9,-,N/A,,Scattered Clouds,200,2013-07-22 19:54:00
4:54 PM,84.0,72.0,67,29.83,10.0,SSW,10.4,18.4,N/A,,Mostly Cloudy,200,2013-07-22 20:54:00
5:54 PM,84.0,72.0,67,29.82,10.0,South,8.1,-,N/A,,Scattered Clouds,190,2013-07-22 21:54:00
6:54 PM,81.0,73.9,79,29.82,10.0,West,3.5,-,0.00,Rain,Light Rain,280,2013-07-22 22:54:00
7:54 PM,78.1,73.9,87,29.82,10.0,Calm,Calm,-,0.01,,Clear,0,2013-07-22 23:54:00
8:54 PM,75.9,73.9,94,29.81,10.0,SSW,3.5,-,N/A,,Partly Cloudy,210,2013-07-23 00:54:00
9:54 PM,75.9,72.0,87,29.83,10.0,Calm,Calm,-,N/A,,Clear,0,2013-07-23 01:54:00
10:54 PM,73.9,72.0,93,29.83,10.0,South,5.8,-,N/A,,Partly Cloudy,190,2013-07-23 02:54:00
11:54 PM,73.9,72.0,93,29.82,10.0,SSW,4.6,-,N/A,,Clear,200,2013-07-23 03:54:00